createdAt,value
2023-03-12T00:02:11.611Z,0.57
2023-03-12T00:04:39.642Z,0.50
2023-03-12T00:07:08.979Z,0.52
2023-03-12T00:09:38.590Z,0.52
2023-03-12T00:12:07.515Z,0.60
2023-03-12T00:14:35.500Z,0.47
2023-03-12T00:17:03.421Z,0.50
2023-03-12T00:19:31.390Z,0.60
2023-03-12T00:21:59.359Z,0.55
2023-03-12T00:24:27.352Z,0.40
2023-03-12T00:26:56.785Z,0.60
2023-03-12T00:29:24.741Z,0.43
2023-03-12T00:31:52.749Z,0.40
2023-03-12T00:34:20.784Z,0.50
2023-03-12T00:36:48.828Z,0.50
2023-03-12T00:39:16.762Z,0.50
2023-03-12T00:41:44.758Z,0.50
2023-03-12T00:44:14.074Z,0.50
2023-03-12T00:46:42.055Z,0.50
2023-03-12T00:49:10.342Z,0.45
2023-03-12T00:51:38.408Z,0.50
2023-03-12T00:54:06.423Z,0.50
2023-03-12T00:56:34.399Z,0.55
2023-03-12T00:59:02.369Z,0.50
2023-03-12T01:01:31.794Z,0.40
2023-03-12T01:04:00.034Z,0.43
2023-03-12T01:06:28.126Z,0.50
2023-03-12T01:08:56.537Z,0.40
2023-03-12T01:11:24.547Z,0.50
2023-03-12T01:13:52.577Z,0.40
2023-03-12T01:16:20.554Z,0.50
2023-03-12T01:18:49.864Z,0.43
2023-03-12T01:21:17.808Z,0.50
2023-03-12T01:23:45.847Z,0.50
2023-03-12T01:26:13.853Z,0.40
2023-03-12T01:28:41.877Z,0.35
2023-03-12T01:31:09.977Z,0.38
2023-03-12T01:33:37.945Z,0.47
2023-03-12T01:36:14.031Z,0.30
2023-03-12T01:38:42.011Z,0.30
2023-03-12T01:41:09.974Z,0.40
2023-03-12T01:43:38.278Z,0.40
2023-03-12T01:46:22.678Z,0.40
2023-03-12T01:48:52.722Z,0.40
2023-03-12T01:51:22.069Z,0.50
2023-03-12T01:53:51.297Z,0.40
2023-03-12T01:56:19.764Z,0.38
2023-03-12T01:58:50.284Z,0.30
2023-03-12T02:01:18.396Z,0.32
2023-03-12T02:03:46.428Z,0.30
2023-03-12T02:06:15.070Z,0.50
2023-03-12T02:08:45.338Z,0.47
2023-03-12T02:11:13.298Z,0.40
2023-03-12T02:13:41.351Z,0.50
2023-03-12T02:16:09.497Z,0.40
2023-03-12T02:18:37.474Z,0.38
2023-03-12T02:21:09.555Z,0.43
2023-03-12T02:23:41.484Z,0.30
2023-03-12T02:26:11.188Z,0.40
2023-03-12T02:28:43.857Z,0.40
2023-03-12T02:31:12.450Z,0.40
2023-03-12T02:33:40.395Z,0.32
2023-03-12T02:36:09.368Z,0.52
2023-03-12T02:38:41.685Z,0.50
2023-03-12T02:41:17.224Z,0.30
2023-03-12T02:43:46.213Z,0.50
2023-03-12T02:46:14.222Z,0.40
2023-03-12T02:48:42.168Z,0.40
2023-03-12T02:51:10.099Z,0.40
2023-03-12T02:53:38.147Z,0.30
2023-03-12T02:56:06.806Z,0.40
2023-03-12T02:58:36.374Z,0.40
2023-03-12T03:01:04.321Z,0.50
2023-03-12T03:03:32.284Z,0.40
2023-03-12T03:06:00.236Z,0.40
2023-03-12T03:08:28.273Z,0.30
2023-03-12T03:10:56.308Z,0.30
2023-03-12T03:13:24.233Z,0.30
2023-03-12T03:15:53.521Z,0.43
2023-03-12T03:18:21.473Z,0.30
2023-03-12T03:20:56.343Z,0.25
2023-03-12T03:23:24.270Z,0.30
2023-03-12T03:25:52.852Z,0.30
2023-03-12T03:28:20.803Z,0.30
2023-03-12T03:30:48.830Z,0.40
2023-03-12T03:33:18.087Z,0.40
2023-03-12T03:35:46.193Z,0.45
2023-03-12T03:38:14.208Z,0.47
2023-03-12T03:40:42.213Z,0.47
2023-03-12T03:43:10.186Z,0.40
2023-03-12T03:45:38.248Z,0.30
2023-03-12T03:48:06.853Z,0.25
2023-03-12T03:50:36.169Z,0.40
2023-03-12T03:53:04.118Z,0.40
2023-03-12T03:55:32.161Z,0.30
2023-03-12T03:58:00.145Z,0.30
2023-03-12T04:00:28.147Z,0.40
2023-03-12T04:02:56.516Z,0.40
2023-03-12T04:05:25.322Z,0.40
2023-03-12T04:07:54.710Z,0.40
2023-03-12T04:10:22.932Z,0.30
2023-03-12T04:12:50.855Z,0.32
2023-03-12T04:15:18.829Z,0.30
2023-03-12T04:17:46.902Z,0.30
2023-03-12T04:20:15.048Z,0.32
2023-03-12T04:22:43.016Z,0.30
2023-03-12T04:25:12.524Z,0.50
2023-03-12T04:27:40.561Z,0.50
2023-03-12T04:30:10.021Z,0.30
2023-03-12T04:32:38.123Z,0.40
2023-03-12T04:35:06.600Z,0.30
2023-03-12T04:37:46.822Z,0.40
2023-03-12T04:40:16.302Z,0.30
2023-03-12T04:42:44.237Z,0.40
2023-03-12T04:45:13.016Z,0.20
2023-03-12T04:47:41.029Z,0.30
2023-03-12T04:50:09.937Z,0.32
2023-03-12T04:52:37.886Z,0.30
2023-03-12T04:55:06.857Z,0.30
2023-03-12T04:57:36.260Z,0.40
2023-03-12T05:00:10.196Z,0.30
2023-03-12T05:02:38.506Z,0.20
2023-03-12T05:05:07.244Z,0.32
2023-03-12T05:07:35.288Z,0.30
2023-03-12T05:10:03.351Z,0.22
2023-03-12T05:12:31.275Z,0.30
2023-03-12T05:15:00.550Z,0.40
2023-03-12T05:17:28.552Z,0.20
2023-03-12T05:19:56.648Z,0.25
2023-03-12T05:22:24.592Z,0.20
2023-03-12T05:24:52.579Z,0.20
2023-03-12T05:27:20.696Z,0.20
2023-03-12T05:29:48.622Z,0.30
2023-03-12T05:32:17.984Z,0.28
2023-03-12T05:34:45.978Z,0.30
2023-03-12T05:37:13.932Z,0.30
2023-03-12T05:39:46.784Z,0.20
2023-03-12T05:42:14.964Z,0.38
2023-03-12T05:44:43.000Z,0.40
2023-03-12T05:47:10.929Z,0.20
2023-03-12T05:49:40.268Z,0.20
2023-03-12T05:52:08.608Z,0.20
2023-03-12T05:54:36.608Z,0.30
2023-03-12T05:57:04.500Z,0.30
2023-03-12T05:59:32.591Z,0.40
2023-03-12T06:02:00.607Z,0.30
2023-03-12T06:04:28.663Z,0.22
2023-03-12T06:06:58.014Z,0.30
2023-03-12T06:09:26.050Z,0.30
2023-03-12T06:11:54.032Z,0.30
2023-03-12T06:14:22.110Z,0.10
2023-03-12T06:16:50.037Z,0.30
2023-03-12T06:19:18.114Z,0.20
2023-03-12T06:21:46.070Z,0.20
2023-03-12T06:24:15.455Z,0.30
2023-03-12T06:26:43.459Z,0.20
2023-03-12T06:29:11.534Z,0.28
2023-03-12T06:31:42.059Z,0.30
2023-03-12T06:34:10.425Z,0.30
2023-03-12T06:36:38.434Z,0.40
2023-03-12T06:39:08.584Z,0.20
2023-03-12T06:41:38.207Z,0.30
2023-03-12T06:44:06.479Z,0.30
2023-03-12T06:46:34.650Z,0.38
2023-03-12T06:49:02.703Z,0.20
2023-03-12T06:51:30.650Z,0.20
2023-03-12T06:54:01.167Z,0.30
2023-03-12T06:56:29.272Z,0.30
2023-03-12T06:58:58.697Z,0.30
2023-03-12T07:01:26.758Z,0.40
2023-03-12T07:03:54.802Z,0.20
2023-03-12T07:06:23.639Z,0.45
2023-03-12T07:08:51.742Z,0.30
2023-03-12T07:11:19.695Z,0.38
2023-03-12T07:13:47.704Z,0.17
2023-03-12T07:16:17.228Z,0.30
2023-03-12T07:18:45.306Z,0.30
2023-03-12T07:21:13.266Z,0.32
2023-03-12T07:23:41.351Z,0.20
2023-03-12T07:26:09.352Z,0.30
2023-03-12T07:28:37.358Z,0.40
2023-03-12T07:31:05.728Z,0.30
2023-03-12T07:33:35.203Z,0.20
2023-03-12T07:36:03.493Z,0.40
2023-03-12T07:38:31.735Z,0.32
2023-03-12T07:41:00.461Z,0.30
2023-03-12T07:43:28.692Z,0.20
2023-03-12T07:45:56.976Z,0.30
2023-03-12T07:48:25.055Z,0.25
2023-03-12T07:50:54.447Z,0.32
2023-03-12T07:53:22.499Z,0.28
2023-03-12T07:55:50.577Z,0.30
2023-03-12T07:58:18.774Z,0.20
2023-03-12T08:00:46.722Z,0.20
2023-03-12T08:03:14.892Z,0.20
2023-03-12T08:05:43.194Z,0.28
2023-03-12T08:08:12.714Z,0.20
2023-03-12T08:10:40.631Z,0.30
2023-03-12T08:13:08.715Z,0.30
2023-03-12T08:15:36.686Z,0.40
2023-03-12T08:18:04.856Z,0.45
2023-03-12T08:20:32.889Z,0.40
2023-03-12T08:23:00.858Z,0.20
2023-03-12T08:25:30.225Z,0.22
2023-03-12T08:27:58.100Z,0.40
2023-03-12T08:30:28.389Z,0.30
2023-03-12T08:33:03.873Z,0.20
2023-03-12T08:35:32.066Z,0.20
2023-03-12T08:38:01.099Z,0.30
2023-03-12T08:40:30.514Z,0.30
2023-03-12T08:42:58.477Z,0.30
2023-03-12T08:45:26.488Z,0.28
2023-03-12T08:48:03.633Z,0.40
2023-03-12T08:50:32.304Z,0.30
2023-03-12T08:53:00.324Z,0.30
2023-03-12T08:55:28.993Z,0.20
2023-03-12T08:57:58.744Z,0.20
2023-03-12T09:00:27.279Z,0.40
2023-03-12T09:02:58.293Z,0.20
2023-03-12T09:05:28.191Z,0.40
2023-03-12T09:07:56.078Z,0.20
2023-03-12T09:10:24.167Z,0.40
2023-03-12T09:12:52.102Z,0.28
2023-03-12T09:15:21.542Z,0.28
2023-03-12T09:17:50.700Z,0.32
2023-03-12T09:20:19.011Z,0.30
2023-03-12T09:22:47.141Z,0.20
2023-03-12T09:25:15.089Z,0.30
2023-03-12T09:27:44.226Z,0.32
2023-03-12T09:30:13.818Z,0.30
2023-03-12T09:32:44.627Z,0.30
2023-03-12T09:35:12.657Z,0.30
2023-03-12T09:37:40.659Z,0.40
2023-03-12T09:40:10.246Z,0.22
2023-03-12T09:42:41.448Z,0.30
2023-03-12T09:45:10.307Z,0.30
2023-03-12T09:47:42.359Z,0.32
2023-03-12T09:50:20.714Z,0.32
2023-03-12T09:52:51.673Z,0.40
2023-03-12T09:55:21.435Z,0.20
2023-03-12T09:57:50.615Z,0.40
2023-03-12T10:00:20.064Z,0.30
2023-03-12T10:02:57.104Z,0.20
2023-03-12T10:05:29.373Z,0.30
2023-03-12T10:08:01.728Z,0.20
2023-03-12T10:10:41.381Z,0.40
2023-03-12T10:13:15.619Z,0.30
2023-03-12T10:15:49.896Z,0.40
2023-03-12T10:18:22.827Z,0.20
2023-03-12T10:20:54.960Z,0.40
2023-03-12T10:23:31.513Z,0.40
2023-03-12T10:26:00.430Z,0.30
2023-03-12T10:28:32.494Z,0.30
2023-03-12T10:31:02.613Z,0.32
2023-03-12T10:33:38.878Z,0.30
2023-03-12T10:36:14.690Z,0.40
2023-03-12T10:38:42.681Z,0.30
2023-03-12T10:41:15.984Z,0.40
2023-03-12T10:43:43.903Z,0.30
2023-03-12T10:46:34.379Z,0.30
2023-03-12T10:49:24.536Z,0.20
2023-03-12T10:51:58.014Z,0.30
2023-03-12T10:54:30.433Z,0.30
2023-03-12T10:56:58.336Z,0.30
2023-03-12T10:59:28.833Z,0.30
2023-03-12T11:01:56.945Z,0.30
2023-03-12T11:04:28.113Z,0.28
2023-03-12T11:07:17.485Z,0.30
2023-03-12T11:09:45.588Z,0.32
2023-03-12T11:12:24.634Z,0.30
2023-03-12T11:14:52.606Z,0.30
2023-03-12T11:17:21.916Z,0.43
2023-03-12T11:19:49.904Z,0.38
2023-03-12T11:22:28.642Z,0.40
2023-03-12T11:24:57.663Z,0.38
2023-03-12T11:27:32.042Z,0.40
2023-03-12T11:29:59.941Z,0.40
2023-03-12T11:32:31.729Z,0.40
2023-03-12T11:34:59.774Z,0.50
2023-03-12T11:37:33.027Z,0.40
2023-03-12T11:40:10.122Z,0.40
2023-03-12T11:42:45.466Z,0.28
2023-03-12T11:45:19.160Z,0.35
2023-03-12T11:47:54.293Z,0.30
2023-03-12T11:50:28.478Z,0.25
2023-03-12T11:53:06.000Z,0.32
2023-03-12T11:55:43.814Z,0.30
2023-03-12T11:58:37.167Z,0.20
2023-03-12T12:01:07.933Z,0.25
2023-03-12T12:03:45.161Z,0.43
2023-03-12T12:06:14.812Z,0.35
2023-03-12T12:08:54.803Z,0.40
2023-03-12T12:11:25.982Z,0.30
2023-03-12T12:14:02.549Z,0.20
2023-03-12T12:16:47.273Z,0.32
2023-03-12T12:19:23.461Z,0.30
2023-03-12T12:22:10.427Z,0.40
2023-03-12T12:24:45.908Z,0.40
2023-03-12T12:27:18.902Z,0.35
2023-03-12T12:30:14.732Z,0.60
2023-03-12T12:32:54.120Z,0.40
2023-03-12T12:35:27.154Z,0.40
2023-03-12T12:37:56.725Z,0.30
2023-03-12T12:40:27.168Z,0.52
2023-03-12T12:42:59.545Z,0.30
2023-03-12T12:45:30.892Z,0.35
2023-03-12T12:48:01.693Z,0.40
2023-03-12T12:50:31.695Z,0.30
2023-03-12T12:53:02.238Z,0.50
2023-03-12T12:55:32.665Z,0.40
2023-03-12T12:58:01.742Z,0.30
2023-03-12T13:00:39.666Z,0.40
2023-03-12T13:03:07.720Z,0.40
2023-03-12T13:05:46.426Z,0.30
2023-03-12T13:08:50.393Z,0.35
2023-03-12T13:11:27.872Z,0.30
2023-03-12T13:14:23.732Z,0.20
2023-03-12T13:16:51.609Z,0.32
2023-03-12T13:19:27.277Z,0.50
2023-03-12T13:22:01.584Z,0.30
2023-03-12T13:24:31.293Z,0.40
2023-03-12T13:27:03.631Z,0.40
2023-03-12T13:29:39.753Z,0.38
2023-03-12T13:32:24.372Z,0.43
2023-03-12T13:34:52.409Z,0.35
2023-03-12T13:37:46.863Z,0.47
2023-03-12T13:40:39.372Z,0.47
2023-03-12T13:43:13.163Z,0.43
2023-03-12T13:45:56.909Z,0.30
2023-03-12T13:48:24.896Z,0.40
2023-03-12T13:50:54.622Z,0.50
2023-03-12T13:53:24.204Z,0.40
2023-03-12T13:56:00.583Z,0.30
2023-03-12T13:58:29.905Z,0.32
2023-03-12T14:00:58.834Z,0.40
2023-03-12T14:03:27.691Z,0.30
2023-03-12T14:05:56.544Z,0.40
2023-03-12T14:08:40.564Z,0.38
2023-03-12T14:11:19.370Z,0.50
2023-03-12T14:14:04.753Z,0.40
2023-03-12T14:16:34.814Z,0.40
2023-03-12T14:19:03.456Z,0.45
2023-03-12T14:21:33.901Z,0.30
2023-03-12T14:24:02.372Z,0.50
2023-03-12T14:26:31.905Z,0.50
2023-03-12T14:29:02.778Z,0.40
2023-03-12T14:31:30.723Z,0.32
2023-03-12T14:34:01.875Z,0.30
2023-03-12T14:36:30.726Z,0.40
2023-03-12T14:39:01.822Z,0.40
2023-03-12T14:41:30.970Z,0.30
2023-03-12T14:44:06.378Z,0.40
2023-03-12T14:46:34.484Z,0.30
2023-03-12T14:49:02.554Z,0.30
2023-03-12T14:51:31.590Z,0.32
2023-03-12T14:54:03.589Z,0.32
2023-03-12T14:56:33.445Z,0.40
2023-03-12T14:59:02.722Z,0.40
2023-03-12T15:01:32.640Z,0.40
2023-03-12T15:04:02.191Z,0.57
2023-03-12T15:06:31.344Z,0.40
2023-03-12T15:08:59.693Z,0.43
2023-03-12T15:11:28.531Z,0.40
2023-03-12T15:13:57.080Z,0.50
2023-03-12T15:16:25.083Z,0.35
2023-03-12T15:18:54.472Z,0.43
2023-03-12T15:21:22.419Z,0.50
2023-03-12T15:23:50.424Z,0.47
2023-03-12T15:26:29.223Z,0.40
2023-03-12T15:28:58.226Z,0.40
2023-03-12T15:31:26.325Z,0.50
2023-03-12T15:34:03.097Z,0.47
2023-03-12T15:36:32.683Z,0.40
2023-03-12T15:39:02.401Z,0.68
2023-03-12T15:41:37.047Z,0.50
2023-03-12T15:44:05.050Z,0.38
2023-03-12T15:46:33.315Z,0.40
2023-03-12T15:49:02.687Z,0.40
2023-03-12T15:51:32.660Z,0.50
2023-03-12T15:54:01.958Z,0.45
2023-03-12T15:56:29.965Z,0.40
2023-03-12T15:59:04.701Z,0.52
2023-03-12T16:01:45.164Z,0.60
2023-03-12T16:04:14.568Z,0.30
2023-03-12T16:06:44.334Z,0.35
2023-03-12T16:09:13.350Z,0.40
2023-03-12T16:11:41.288Z,0.50
2023-03-12T16:14:13.580Z,0.40
2023-03-12T16:16:41.633Z,0.40
2023-03-12T16:19:14.471Z,0.60
2023-03-12T16:21:42.556Z,0.38
2023-03-12T16:24:10.536Z,0.50
2023-03-12T16:26:39.835Z,0.40
2023-03-12T16:29:07.869Z,0.40
2023-03-12T16:31:36.391Z,0.45
2023-03-12T16:34:04.415Z,0.35
2023-03-12T16:36:34.003Z,0.50
2023-03-12T16:39:01.926Z,0.60
2023-03-12T16:41:30.471Z,0.43
2023-03-12T16:43:58.968Z,0.50
2023-03-12T16:46:28.557Z,0.60
2023-03-12T16:48:56.676Z,0.50
2023-03-12T16:51:24.672Z,0.57
2023-03-12T16:54:07.318Z,0.50
2023-03-12T16:56:37.858Z,0.50
2023-03-12T16:59:07.279Z,0.50
2023-03-12T17:01:35.384Z,0.43
2023-03-12T17:04:04.968Z,0.57
2023-03-12T17:06:33.244Z,0.70
2023-03-12T17:09:03.007Z,0.60
2023-03-12T17:11:32.942Z,0.55
2023-03-12T17:14:01.967Z,0.60
2023-03-12T17:16:30.028Z,0.47
2023-03-12T17:18:58.134Z,0.50
2023-03-12T17:21:26.085Z,0.52
2023-03-12T17:23:54.013Z,0.32
2023-03-12T17:26:23.482Z,0.50
2023-03-12T17:28:51.408Z,0.45
2023-03-12T17:31:19.417Z,0.52
2023-03-12T17:33:47.495Z,0.57
2023-03-12T17:36:15.765Z,0.70
2023-03-12T17:38:43.748Z,0.60
2023-03-12T17:41:25.586Z,0.50
2023-03-12T17:43:58.539Z,0.50
2023-03-12T17:46:26.567Z,0.70
2023-03-12T17:48:54.600Z,0.60
2023-03-12T17:51:22.706Z,0.60
2023-03-12T17:53:50.581Z,0.57
2023-03-12T17:56:19.275Z,0.68
2023-03-12T17:58:47.203Z,0.70
2023-03-12T18:01:17.230Z,0.80
2023-03-12T18:03:45.305Z,0.80
2023-03-12T18:06:13.361Z,0.50
2023-03-12T18:08:41.334Z,0.63
2023-03-12T18:11:09.237Z,0.60
2023-03-12T18:13:38.869Z,0.82
2023-03-12T18:16:08.637Z,0.88
2023-03-12T18:18:37.966Z,0.80
2023-03-12T18:21:06.309Z,0.70
2023-03-12T18:23:34.327Z,0.60
2023-03-12T18:26:02.264Z,0.70
2023-03-12T18:28:30.199Z,0.68
2023-03-12T18:30:58.253Z,0.70
2023-03-12T18:33:26.290Z,0.90
2023-03-12T18:35:55.570Z,0.80
2023-03-12T18:38:23.565Z,0.80
2023-03-12T18:40:51.688Z,0.90
2023-03-12T18:43:21.732Z,0.80
2023-03-12T18:45:51.030Z,0.80
2023-03-12T18:48:18.956Z,0.90
2023-03-12T18:50:46.936Z,0.90
2023-03-12T18:53:16.222Z,1.00
2023-03-12T18:55:52.084Z,1.30
2023-03-12T18:58:22.778Z,1.35
2023-03-12T19:00:52.040Z,1.30
2023-03-12T19:03:20.062Z,1.45
2023-03-12T19:05:48.161Z,1.60
2023-03-12T19:08:17.726Z,1.63
2023-03-12T19:10:46.530Z,1.65
2023-03-12T19:13:15.523Z,1.63
2023-03-12T19:15:43.846Z,1.83
2023-03-12T19:18:12.326Z,1.65
2023-03-12T19:20:40.278Z,1.70
2023-03-12T19:23:08.225Z,2.10
2023-03-12T19:25:37.577Z,1.88
2023-03-12T19:28:05.545Z,2.05
2023-03-12T19:30:33.584Z,2.10
2023-03-12T19:33:01.663Z,2.05
2023-03-12T19:35:29.625Z,2.35
2023-03-12T19:37:59.514Z,2.30
2023-03-12T19:40:27.409Z,2.20
2023-03-12T19:42:56.683Z,2.35
2023-03-12T19:45:24.626Z,2.40
2023-03-12T19:47:53.324Z,2.45
2023-03-12T19:50:21.313Z,3.05
2023-03-12T19:52:49.268Z,2.70
2023-03-12T19:55:17.580Z,2.85
2023-03-12T19:57:45.761Z,2.58
2023-03-12T20:00:15.925Z,2.90
2023-03-12T20:02:45.863Z,2.70
2023-03-12T20:05:13.899Z,2.70
2023-03-12T20:07:41.905Z,3.00
2023-03-12T20:10:11.181Z,3.40
2023-03-12T20:12:39.483Z,3.17
2023-03-12T20:15:08.459Z,3.42
2023-03-12T20:17:38.040Z,3.70
2023-03-12T20:20:08.417Z,3.47
2023-03-12T20:22:37.062Z,3.38
2023-03-12T20:25:05.307Z,3.50
2023-03-12T20:27:34.202Z,3.35
2023-03-12T20:30:03.724Z,3.47
2023-03-12T20:32:31.913Z,4.00
2023-03-12T20:35:01.321Z,3.50
2023-03-12T20:37:29.315Z,4.10
2023-03-12T20:39:58.003Z,4.13
2023-03-12T20:42:25.957Z,3.72
2023-03-12T20:44:53.873Z,3.70
2023-03-12T20:47:22.222Z,3.80
2023-03-12T20:49:50.191Z,4.05
2023-03-12T20:52:19.544Z,4.13
2023-03-12T20:54:47.487Z,4.20
2023-03-12T20:57:15.421Z,3.83
2023-03-12T20:59:43.404Z,4.50
2023-03-12T21:02:13.971Z,4.47
2023-03-12T21:04:42.108Z,4.32
2023-03-12T21:07:10.145Z,4.35
2023-03-12T21:09:39.569Z,4.50
2023-03-12T21:12:07.870Z,4.20
2023-03-12T21:14:35.974Z,4.80
2023-03-12T21:17:04.183Z,4.65
2023-03-12T21:19:32.350Z,4.60
2023-03-12T21:22:00.330Z,4.57
2023-03-12T21:24:28.440Z,4.72
2023-03-12T21:26:57.760Z,4.57
2023-03-12T21:29:25.767Z,4.65
2023-03-12T21:31:53.911Z,5.00
2023-03-12T21:34:21.911Z,5.00
2023-03-12T21:36:49.878Z,4.70
2023-03-12T21:39:18.879Z,5.03
2023-03-12T21:41:46.860Z,4.88
2023-03-12T21:44:16.775Z,5.55
2023-03-12T21:46:45.195Z,5.13
2023-03-12T21:49:14.040Z,4.97
2023-03-12T21:51:42.093Z,5.05
2023-03-12T21:54:09.995Z,5.80
2023-03-12T21:56:37.902Z,5.68
2023-03-12T21:59:05.788Z,5.90
2023-03-12T22:01:35.217Z,5.70
2023-03-12T22:04:05.588Z,6.00
2023-03-12T22:06:33.965Z,5.80
2023-03-12T22:09:01.966Z,5.97
2023-03-12T22:11:29.996Z,5.78
2023-03-12T22:13:57.899Z,5.93
2023-03-12T22:16:25.908Z,5.53
2023-03-12T22:18:55.296Z,5.82
2023-03-12T22:21:23.960Z,5.35
2023-03-12T22:23:54.188Z,5.40
2023-03-12T22:26:22.631Z,5.57
2023-03-12T22:28:51.497Z,5.80
2023-03-12T22:31:20.124Z,5.63
2023-03-12T22:33:48.215Z,6.05
2023-03-12T22:36:17.780Z,6.00
2023-03-12T22:38:47.751Z,5.93
2023-03-12T22:41:16.718Z,6.05
2023-03-12T22:43:44.902Z,6.55
2023-03-12T22:46:12.957Z,6.63
2023-03-12T22:48:40.855Z,6.25
2023-03-12T22:51:08.958Z,6.47
2023-03-12T22:53:38.277Z,6.20
2023-03-12T22:56:07.321Z,6.30
2023-03-12T22:58:35.368Z,6.68
2023-03-12T23:01:03.812Z,6.53
2023-03-12T23:03:33.527Z,6.35
2023-03-12T23:06:01.593Z,6.70
2023-03-12T23:08:30.181Z,6.47
2023-03-12T23:11:00.456Z,6.55
2023-03-12T23:13:28.982Z,6.25
2023-03-12T23:15:56.926Z,6.63
2023-03-12T23:18:24.993Z,6.65
2023-03-12T23:20:58.921Z,6.28
2023-03-12T23:23:26.915Z,6.23
2023-03-12T23:25:55.035Z,6.97
2023-03-12T23:28:24.391Z,6.90
2023-03-12T23:30:56.566Z,6.68
2023-03-12T23:33:24.878Z,6.82
2023-03-12T23:35:56.866Z,6.97
2023-03-12T23:38:25.231Z,6.53
2023-03-12T23:40:53.125Z,6.72
2023-03-12T23:43:21.019Z,6.50
2023-03-12T23:45:56.668Z,6.97
2023-03-12T23:48:24.772Z,6.53
2023-03-12T23:50:52.660Z,6.72
2023-03-12T23:53:20.614Z,6.60
2023-03-12T23:55:58.140Z,6.70
2023-03-12T23:58:26.242Z,6.40
